N2843 KCYS-KCOS
Flight info
| Callsign | N2843 |
|---|---|
| Flight time | 1h 11m |
| Altitude | 13500 |
| Route | CYS V611 GLL FQF V389 ADANE |
| Aircraft | C208/L-SDFGR/C |
Departure
| Time | 2026-05-06 14:55 |
|---|---|
| Airport | Cheyenne Regional Jerry Olson Field (KCYS) |
Arrival
| Time | 2026-05-06 16:06 |
|---|---|
| Airport | City of Colorado Springs Municipal Airport (KCOS) |
| Time | Latitude | Longitude | Altitude | Speed | Heading |
|---|---|---|---|---|---|
| 2026-05-06 14:43 | 41.15193 | -104.81728 | 6146 ft | 0 kts | 90° |
| 2026-05-06 14:50 | 41.15179 | -104.81713 | 6146 ft | 6 kts | 181° |
| 2026-05-06 14:50 | 41.15122 | -104.81738 | 6145 ft | 13 kts | 178° |
| 2026-05-06 14:51 | 41.15012 | -104.81730 | 6141 ft | 18 kts | 176° |
| 2026-05-06 14:51 | 41.14918 | -104.81639 | 6137 ft | 18 kts | 133° |
| 2026-05-06 14:51 | 41.14898 | -104.81504 | 6137 ft | 15 kts | 85° |
| 2026-05-06 14:51 | 41.14908 | -104.81352 | 6134 ft | 18 kts | 87° |
| 2026-05-06 14:52 | 41.14915 | -104.81183 | 6130 ft | 12 kts | 86° |
| 2026-05-06 14:52 | 41.14916 | -104.81168 | 6130 ft | 0 kts | 86° |
| 2026-05-06 14:54 | 41.14924 | -104.81086 | 6131 ft | 9 kts | 57° |
| 2026-05-06 14:54 | 41.14982 | -104.81118 | 6132 ft | 26 kts | 316° |
| 2026-05-06 14:54 | 41.15306 | -104.81542 | 6162 ft | 94 kts | 315° |
| 2026-05-06 14:55 | 41.15810 | -104.82195 | 6479 ft | 103 kts | 317° |
| 2026-05-06 14:55 | 41.16336 | -104.82845 | 6926 ft | 105 kts | 319° |
| 2026-05-06 14:55 | 41.16862 | -104.83534 | 7400 ft | 107 kts | 317° |
| 2026-05-06 14:55 | 41.17393 | -104.84234 | 7808 ft | 108 kts | 317° |
| 2026-05-06 14:56 | 41.18046 | -104.84602 | 8180 ft | 107 kts | 12° |
| 2026-05-06 14:56 | 41.18534 | -104.83899 | 8559 ft | 109 kts | 60° |
| 2026-05-06 14:56 | 41.18927 | -104.83043 | 8947 ft | 109 kts | 59° |
| 2026-05-06 14:56 | 41.19284 | -104.82148 | 9319 ft | 110 kts | 59° |
| 2026-05-06 14:57 | 41.19631 | -104.81248 | 9701 ft | 111 kts | 60° |
| 2026-05-06 14:57 | 41.19963 | -104.80314 | 10076 ft | 113 kts | 67° |
| 2026-05-06 14:57 | 41.19983 | -104.79262 | 10390 ft | 118 kts | 102° |
| 2026-05-06 14:57 | 41.19468 | -104.78400 | 10716 ft | 122 kts | 133° |
| 2026-05-06 14:58 | 41.18884 | -104.77583 | 11044 ft | 122 kts | 131° |
| 2026-05-06 14:58 | 41.18284 | -104.76778 | 11360 ft | 124 kts | 142° |
| 2026-05-06 14:58 | 41.17457 | -104.76454 | 11665 ft | 125 kts | 163° |
| 2026-05-06 14:58 | 41.16634 | -104.76080 | 11990 ft | 125 kts | 163° |
| 2026-05-06 14:59 | 41.15775 | -104.75729 | 12307 ft | 132 kts | 165° |
| 2026-05-06 14:59 | 41.14919 | -104.75429 | 12811 ft | 125 kts | 167° |
| 2026-05-06 14:59 | 41.14072 | -104.75152 | 13250 ft | 125 kts | 167° |
| 2026-05-06 14:59 | 41.13201 | -104.74880 | 13512 ft | 139 kts | 168° |
| 2026-05-06 15:00 | 41.12178 | -104.74567 | 13526 ft | 161 kts | 168° |
| 2026-05-06 15:00 | 41.11045 | -104.74219 | 13524 ft | 172 kts | 168° |
| 2026-05-06 15:00 | 41.09852 | -104.73855 | 13518 ft | 179 kts | 168° |
| 2026-05-06 15:00 | 41.08627 | -104.73481 | 13518 ft | 182 kts | 168° |
| 2026-05-06 15:01 | 41.07387 | -104.73101 | 13523 ft | 184 kts | 168° |
| 2026-05-06 15:01 | 41.06155 | -104.72725 | 13518 ft | 185 kts | 168° |
| 2026-05-06 15:01 | 41.04903 | -104.72344 | 13528 ft | 185 kts | 167° |
| 2026-05-06 15:01 | 41.03724 | -104.71681 | 13523 ft | 185 kts | 150° |
| 2026-05-06 15:02 | 41.02555 | -104.70984 | 13524 ft | 185 kts | 161° |
| 2026-05-06 15:02 | 41.01326 | -104.70521 | 13522 ft | 184 kts | 177° |
| 2026-05-06 15:02 | 41.00061 | -104.70679 | 13530 ft | 183 kts | 182° |
| 2026-05-06 15:02 | 40.98803 | -104.70448 | 13533 ft | 183 kts | 169° |
| 2026-05-06 15:03 | 40.97552 | -104.70099 | 13539 ft | 184 kts | 168° |
| 2026-05-06 15:03 | 40.96304 | -104.69726 | 13544 ft | 184 kts | 167° |
| 2026-05-06 15:03 | 40.95054 | -104.69345 | 13550 ft | 184 kts | 167° |
| 2026-05-06 15:03 | 40.93809 | -104.68965 | 13553 ft | 183 kts | 167° |
| 2026-05-06 15:04 | 40.92581 | -104.68592 | 13552 ft | 180 kts | 167° |
| 2026-05-06 15:04 | 40.91367 | -104.68222 | 13551 ft | 178 kts | 167° |
| 2026-05-06 15:04 | 40.90159 | -104.67856 | 13551 ft | 178 kts | 167° |
| 2026-05-06 15:04 | 40.88957 | -104.67491 | 13551 ft | 177 kts | 167° |
| 2026-05-06 15:05 | 40.87757 | -104.67127 | 13552 ft | 177 kts | 167° |
| 2026-05-06 15:05 | 40.86561 | -104.66764 | 13559 ft | 176 kts | 167° |
| 2026-05-06 15:05 | 40.85370 | -104.66403 | 13564 ft | 175 kts | 167° |
| 2026-05-06 15:05 | 40.84181 | -104.66042 | 13564 ft | 175 kts | 167° |
| 2026-05-06 15:06 | 40.82997 | -104.65684 | 13568 ft | 175 kts | 167° |
| 2026-05-06 15:06 | 40.81812 | -104.65325 | 13569 ft | 175 kts | 167° |
| 2026-05-06 15:06 | 40.80627 | -104.64967 | 13566 ft | 175 kts | 167° |
| 2026-05-06 15:06 | 40.79440 | -104.64607 | 13567 ft | 176 kts | 167° |
| 2026-05-06 15:07 | 40.78248 | -104.64247 | 13564 ft | 176 kts | 167° |
| 2026-05-06 15:07 | 40.77052 | -104.63885 | 13567 ft | 176 kts | 167° |
| 2026-05-06 15:07 | 40.75853 | -104.63523 | 13568 ft | 177 kts | 167° |
| 2026-05-06 15:07 | 40.74653 | -104.63160 | 13565 ft | 177 kts | 167° |
| 2026-05-06 15:08 | 40.73450 | -104.62796 | 13566 ft | 178 kts | 167° |
| 2026-05-06 15:08 | 40.72245 | -104.62432 | 13563 ft | 178 kts | 167° |
| 2026-05-06 15:08 | 40.71040 | -104.62069 | 13564 ft | 178 kts | 167° |
| 2026-05-06 15:08 | 40.69834 | -104.61705 | 13562 ft | 178 kts | 167° |
| 2026-05-06 15:09 | 40.68628 | -104.61341 | 13562 ft | 178 kts | 167° |
| 2026-05-06 15:09 | 40.67423 | -104.60977 | 13559 ft | 178 kts | 167° |
| 2026-05-06 15:09 | 40.66219 | -104.60614 | 13560 ft | 177 kts | 167° |
| 2026-05-06 15:09 | 40.65016 | -104.60251 | 13558 ft | 177 kts | 167° |
| 2026-05-06 15:10 | 40.63812 | -104.59889 | 13556 ft | 178 kts | 167° |
| 2026-05-06 15:10 | 40.62608 | -104.59526 | 13556 ft | 178 kts | 168° |
| 2026-05-06 15:10 | 40.61402 | -104.59163 | 13555 ft | 178 kts | 168° |
| 2026-05-06 15:10 | 40.60188 | -104.58895 | 13549 ft | 177 kts | 181° |
| 2026-05-06 15:11 | 40.59050 | -104.59405 | 13554 ft | 174 kts | 209° |
| 2026-05-06 15:11 | 40.57912 | -104.59936 | 13549 ft | 175 kts | 189° |
| 2026-05-06 15:11 | 40.56711 | -104.60050 | 13558 ft | 176 kts | 184° |
| 2026-05-06 15:11 | 40.55486 | -104.60110 | 13558 ft | 176 kts | 183° |
| 2026-05-06 15:12 | 40.54257 | -104.60146 | 13561 ft | 177 kts | 182° |
| 2026-05-06 15:12 | 40.53023 | -104.60173 | 13558 ft | 178 kts | 182° |
| 2026-05-06 15:12 | 40.51788 | -104.60201 | 13560 ft | 178 kts | 182° |
| 2026-05-06 15:12 | 40.50552 | -104.60230 | 13562 ft | 178 kts | 183° |
| 2026-05-06 15:13 | 40.49317 | -104.60258 | 13560 ft | 178 kts | 182° |
| 2026-05-06 15:13 | 40.48081 | -104.60287 | 13563 ft | 178 kts | 183° |
| 2026-05-06 15:13 | 40.46843 | -104.60317 | 13559 ft | 178 kts | 183° |
| 2026-05-06 15:13 | 40.45604 | -104.60343 | 13562 ft | 178 kts | 183° |
| 2026-05-06 15:14 | 40.44369 | -104.60372 | 13565 ft | 177 kts | 182° |
| 2026-05-06 15:14 | 40.43136 | -104.60401 | 13564 ft | 177 kts | 183° |
| 2026-05-06 15:14 | 40.41905 | -104.60430 | 13562 ft | 177 kts | 182° |
| 2026-05-06 15:14 | 40.40676 | -104.60458 | 13562 ft | 177 kts | 183° |
| 2026-05-06 15:15 | 40.39445 | -104.60486 | 13563 ft | 177 kts | 183° |
| 2026-05-06 15:15 | 40.38213 | -104.60513 | 13562 ft | 177 kts | 183° |
| 2026-05-06 15:15 | 40.36988 | -104.60544 | 13560 ft | 176 kts | 183° |
| 2026-05-06 15:15 | 40.35769 | -104.60572 | 13560 ft | 175 kts | 183° |
| 2026-05-06 15:16 | 40.34551 | -104.60600 | 13558 ft | 175 kts | 182° |
| 2026-05-06 15:16 | 40.33340 | -104.60627 | 13558 ft | 174 kts | 183° |
| 2026-05-06 15:16 | 40.32133 | -104.60654 | 13557 ft | 173 kts | 183° |
| 2026-05-06 15:16 | 40.30928 | -104.60682 | 13550 ft | 173 kts | 183° |
| 2026-05-06 15:17 | 40.29765 | -104.60710 | 13548 ft | 173 kts | 183° |
| 2026-05-06 15:17 | 40.28910 | -104.60729 | 13550 ft | 172 kts | 183° |
| 2026-05-06 15:17 | 40.27710 | -104.60757 | 13553 ft | 172 kts | 182° |
| 2026-05-06 15:17 | 40.26512 | -104.60783 | 13552 ft | 173 kts | 182° |
| 2026-05-06 15:18 | 40.25310 | -104.60811 | 13556 ft | 173 kts | 182° |
| 2026-05-06 15:18 | 40.24102 | -104.60841 | 13554 ft | 174 kts | 182° |
| 2026-05-06 15:18 | 40.22890 | -104.60869 | 13558 ft | 174 kts | 182° |
| 2026-05-06 15:18 | 40.21676 | -104.60896 | 13558 ft | 175 kts | 182° |
| 2026-05-06 15:19 | 40.20461 | -104.60924 | 13560 ft | 175 kts | 182° |
| 2026-05-06 15:19 | 40.19246 | -104.60951 | 13560 ft | 174 kts | 182° |
| 2026-05-06 15:19 | 40.18033 | -104.60979 | 13559 ft | 174 kts | 182° |
| 2026-05-06 15:19 | 40.16825 | -104.61007 | 13561 ft | 174 kts | 182° |
| 2026-05-06 15:20 | 40.15702 | -104.61032 | 13555 ft | 174 kts | 182° |
| 2026-05-06 15:20 | 40.14488 | -104.61061 | 13542 ft | 174 kts | 183° |
| 2026-05-06 15:20 | 40.13278 | -104.61089 | 13542 ft | 174 kts | 182° |
| 2026-05-06 15:20 | 40.12067 | -104.61116 | 13539 ft | 174 kts | 182° |
| 2026-05-06 15:21 | 40.10852 | -104.61143 | 13536 ft | 174 kts | 182° |
| 2026-05-06 15:21 | 40.09640 | -104.61172 | 13535 ft | 175 kts | 182° |
| 2026-05-06 15:21 | 40.08424 | -104.61201 | 13535 ft | 175 kts | 182° |
| 2026-05-06 15:21 | 40.07203 | -104.61228 | 13533 ft | 176 kts | 182° |
| 2026-05-06 15:22 | 40.05980 | -104.61256 | 13531 ft | 176 kts | 182° |
| 2026-05-06 15:22 | 40.04755 | -104.61284 | 13532 ft | 176 kts | 182° |
| 2026-05-06 15:22 | 40.03526 | -104.61312 | 13529 ft | 177 kts | 182° |
| 2026-05-06 15:22 | 40.02297 | -104.61340 | 13531 ft | 177 kts | 182° |
| 2026-05-06 15:23 | 40.01062 | -104.61368 | 13527 ft | 177 kts | 182° |
| 2026-05-06 15:23 | 39.99847 | -104.61397 | 13526 ft | 177 kts | 182° |
| 2026-05-06 15:23 | 39.98612 | -104.61424 | 13527 ft | 178 kts | 182° |
| 2026-05-06 15:23 | 39.97376 | -104.61452 | 13524 ft | 178 kts | 181° |
| 2026-05-06 15:24 | 39.96140 | -104.61480 | 13524 ft | 178 kts | 182° |
| 2026-05-06 15:24 | 39.94906 | -104.61509 | 13525 ft | 177 kts | 182° |
| 2026-05-06 15:24 | 39.93672 | -104.61537 | 13523 ft | 177 kts | 181° |
| 2026-05-06 15:24 | 39.92851 | -104.61555 | 13525 ft | 177 kts | 181° |
| 2026-05-06 15:25 | 39.91618 | -104.61583 | 13516 ft | 177 kts | 181° |
| 2026-05-06 15:25 | 39.90390 | -104.61611 | 13511 ft | 176 kts | 181° |
| 2026-05-06 15:25 | 39.89168 | -104.61639 | 13513 ft | 175 kts | 181° |
| 2026-05-06 15:25 | 39.87950 | -104.61667 | 13512 ft | 175 kts | 181° |
| 2026-05-06 15:26 | 39.86734 | -104.61695 | 13513 ft | 175 kts | 181° |
| 2026-05-06 15:26 | 39.85518 | -104.61722 | 13512 ft | 175 kts | 181° |
| 2026-05-06 15:26 | 39.84304 | -104.61750 | 13511 ft | 175 kts | 181° |
| 2026-05-06 15:26 | 39.83087 | -104.61778 | 13508 ft | 175 kts | 181° |
| 2026-05-06 15:27 | 39.81874 | -104.61806 | 13507 ft | 174 kts | 181° |
| 2026-05-06 15:27 | 39.80663 | -104.61833 | 13507 ft | 174 kts | 181° |
| 2026-05-06 15:27 | 39.79452 | -104.61860 | 13504 ft | 174 kts | 181° |
| 2026-05-06 15:27 | 39.78237 | -104.61888 | 13506 ft | 174 kts | 181° |
| 2026-05-06 15:28 | 39.77028 | -104.61915 | 13510 ft | 174 kts | 180° |
| 2026-05-06 15:28 | 39.75817 | -104.61943 | 13505 ft | 174 kts | 180° |
| 2026-05-06 15:28 | 39.74607 | -104.61971 | 13505 ft | 174 kts | 180° |
| 2026-05-06 15:28 | 39.73394 | -104.61999 | 13505 ft | 174 kts | 180° |
| 2026-05-06 15:29 | 39.72182 | -104.62026 | 13506 ft | 175 kts | 180° |
| 2026-05-06 15:29 | 39.70963 | -104.62052 | 13506 ft | 175 kts | 180° |
| 2026-05-06 15:29 | 39.69747 | -104.62077 | 13491 ft | 175 kts | 180° |
| 2026-05-06 15:29 | 39.68528 | -104.62103 | 13489 ft | 175 kts | 180° |
| 2026-05-06 15:30 | 39.67307 | -104.62128 | 13487 ft | 176 kts | 180° |
| 2026-05-06 15:30 | 39.66122 | -104.61878 | 13483 ft | 174 kts | 151° |
| 2026-05-06 15:30 | 39.65178 | -104.60904 | 13493 ft | 173 kts | 137° |
| 2026-05-06 15:30 | 39.64267 | -104.59895 | 13496 ft | 172 kts | 148° |
| 2026-05-06 15:31 | 39.63198 | -104.59249 | 13497 ft | 172 kts | 157° |
| 2026-05-06 15:31 | 39.62090 | -104.58658 | 13499 ft | 173 kts | 158° |
| 2026-05-06 15:31 | 39.60968 | -104.58092 | 13499 ft | 173 kts | 159° |
| 2026-05-06 15:32 | 39.58731 | -104.56983 | 13501 ft | 172 kts | 159° |
| 2026-05-06 15:32 | 39.57612 | -104.56427 | 13501 ft | 172 kts | 159° |
| 2026-05-06 15:32 | 39.56490 | -104.55871 | 13502 ft | 173 kts | 159° |
| 2026-05-06 15:32 | 39.55367 | -104.55313 | 13506 ft | 173 kts | 159° |
| 2026-05-06 15:33 | 39.54611 | -104.54938 | 13510 ft | 172 kts | 159° |
| 2026-05-06 15:33 | 39.53487 | -104.54381 | 13495 ft | 173 kts | 159° |
| 2026-05-06 15:33 | 39.52367 | -104.53826 | 13507 ft | 172 kts | 159° |
| 2026-05-06 15:33 | 39.51251 | -104.53273 | 13510 ft | 172 kts | 159° |
| 2026-05-06 15:34 | 39.50135 | -104.52719 | 13513 ft | 171 kts | 159° |
| 2026-05-06 15:34 | 39.49025 | -104.52170 | 13516 ft | 171 kts | 159° |
| 2026-05-06 15:34 | 39.47929 | -104.51627 | 13519 ft | 171 kts | 159° |
| 2026-05-06 15:34 | 39.46820 | -104.51079 | 13524 ft | 171 kts | 159° |
| 2026-05-06 15:35 | 39.45712 | -104.50530 | 13525 ft | 171 kts | 159° |
| 2026-05-06 15:35 | 39.44602 | -104.49981 | 13527 ft | 171 kts | 159° |
| 2026-05-06 15:35 | 39.43495 | -104.49433 | 13530 ft | 170 kts | 159° |
| 2026-05-06 15:35 | 39.42388 | -104.48887 | 13527 ft | 171 kts | 159° |
| 2026-05-06 15:36 | 39.41277 | -104.48337 | 13531 ft | 171 kts | 159° |
| 2026-05-06 15:36 | 39.40164 | -104.47787 | 13533 ft | 171 kts | 160° |
| 2026-05-06 15:36 | 39.39049 | -104.47236 | 13540 ft | 172 kts | 160° |
| 2026-05-06 15:36 | 39.37932 | -104.46685 | 13543 ft | 172 kts | 160° |
| 2026-05-06 15:37 | 39.36816 | -104.46135 | 13542 ft | 171 kts | 160° |
| 2026-05-06 15:37 | 39.35701 | -104.45585 | 13548 ft | 172 kts | 160° |
| 2026-05-06 15:37 | 39.34586 | -104.45035 | 13546 ft | 172 kts | 160° |
| 2026-05-06 15:37 | 39.33472 | -104.44485 | 13543 ft | 171 kts | 160° |
| 2026-05-06 15:38 | 39.32357 | -104.43936 | 13543 ft | 171 kts | 160° |
| 2026-05-06 15:38 | 39.31246 | -104.43388 | 13545 ft | 171 kts | 160° |
| 2026-05-06 15:38 | 39.30133 | -104.42840 | 13543 ft | 172 kts | 160° |
| 2026-05-06 15:38 | 39.29016 | -104.42289 | 13545 ft | 172 kts | 160° |
| 2026-05-06 15:39 | 39.27898 | -104.41738 | 13544 ft | 172 kts | 161° |
| 2026-05-06 15:39 | 39.26779 | -104.41188 | 13539 ft | 172 kts | 161° |
| 2026-05-06 15:39 | 39.25658 | -104.40636 | 13535 ft | 172 kts | 161° |
| 2026-05-06 15:39 | 39.24535 | -104.40083 | 13534 ft | 173 kts | 161° |
| 2026-05-06 15:40 | 39.23421 | -104.39537 | 13379 ft | 172 kts | 161° |
| 2026-05-06 15:40 | 39.22301 | -104.38987 | 13192 ft | 172 kts | 161° |
| 2026-05-06 15:40 | 39.21183 | -104.38436 | 13010 ft | 172 kts | 161° |
| 2026-05-06 15:40 | 39.20066 | -104.37888 | 12841 ft | 172 kts | 161° |
| 2026-05-06 15:41 | 39.18934 | -104.37416 | 12642 ft | 171 kts | 175° |
| 2026-05-06 15:41 | 39.17824 | -104.37832 | 12468 ft | 168 kts | 215° |
| 2026-05-06 15:41 | 39.16814 | -104.38596 | 12275 ft | 169 kts | 204° |
| 2026-05-06 15:41 | 39.15679 | -104.38984 | 12095 ft | 170 kts | 186° |
| 2026-05-06 15:42 | 39.14499 | -104.39096 | 11930 ft | 170 kts | 184° |
| 2026-05-06 15:42 | 39.13318 | -104.39172 | 11761 ft | 171 kts | 183° |
| 2026-05-06 15:42 | 39.12134 | -104.39237 | 11607 ft | 170 kts | 183° |
| 2026-05-06 15:42 | 39.10950 | -104.39303 | 11511 ft | 171 kts | 183° |
| 2026-05-06 15:43 | 39.09766 | -104.39368 | 11507 ft | 170 kts | 183° |
| 2026-05-06 15:43 | 39.08875 | -104.39414 | 11505 ft | 170 kts | 183° |
| 2026-05-06 15:43 | 39.07695 | -104.39475 | 11501 ft | 169 kts | 183° |
| 2026-05-06 15:43 | 39.06521 | -104.39535 | 11517 ft | 168 kts | 183° |
| 2026-05-06 15:44 | 39.05354 | -104.39594 | 11512 ft | 168 kts | 183° |
| 2026-05-06 15:44 | 39.04184 | -104.39638 | 11516 ft | 168 kts | 181° |
| 2026-05-06 15:44 | 39.03010 | -104.39652 | 11516 ft | 169 kts | 182° |
| 2026-05-06 15:44 | 39.01837 | -104.39695 | 11515 ft | 168 kts | 182° |
| 2026-05-06 15:45 | 39.00668 | -104.39745 | 11511 ft | 168 kts | 183° |
| 2026-05-06 15:45 | 38.99495 | -104.39796 | 11509 ft | 168 kts | 183° |
| 2026-05-06 15:45 | 38.98325 | -104.39848 | 11509 ft | 168 kts | 183° |
| 2026-05-06 15:45 | 38.97157 | -104.39899 | 11510 ft | 168 kts | 183° |
| 2026-05-06 15:46 | 38.95990 | -104.39951 | 11507 ft | 168 kts | 183° |
| 2026-05-06 15:46 | 38.94820 | -104.40002 | 11508 ft | 168 kts | 183° |
| 2026-05-06 15:46 | 38.93651 | -104.40055 | 11511 ft | 168 kts | 183° |
| 2026-05-06 15:46 | 38.92500 | -104.40107 | 11509 ft | 168 kts | 183° |
| 2026-05-06 15:47 | 38.91318 | -104.40161 | 11508 ft | 167 kts | 183° |
| 2026-05-06 15:47 | 38.90155 | -104.40215 | 11510 ft | 167 kts | 183° |
| 2026-05-06 15:47 | 38.88992 | -104.40268 | 11510 ft | 167 kts | 183° |
| 2026-05-06 15:47 | 38.87834 | -104.40322 | 11510 ft | 167 kts | 183° |
| 2026-05-06 15:48 | 38.86676 | -104.40374 | 11513 ft | 166 kts | 183° |
| 2026-05-06 15:48 | 38.85535 | -104.40425 | 11511 ft | 166 kts | 183° |
| 2026-05-06 15:48 | 38.84381 | -104.40478 | 11511 ft | 166 kts | 183° |
| 2026-05-06 15:48 | 38.83229 | -104.40532 | 11474 ft | 164 kts | 183° |
| 2026-05-06 15:49 | 38.82090 | -104.40585 | 11254 ft | 165 kts | 183° |
| 2026-05-06 15:49 | 38.80941 | -104.40639 | 11024 ft | 165 kts | 182° |
| 2026-05-06 15:49 | 38.79776 | -104.40692 | 10813 ft | 165 kts | 182° |
| 2026-05-06 15:49 | 38.78627 | -104.40744 | 10604 ft | 165 kts | 181° |
| 2026-05-06 15:50 | 38.77492 | -104.40795 | 10401 ft | 166 kts | 181° |
| 2026-05-06 15:50 | 38.76342 | -104.40848 | 10218 ft | 165 kts | 181° |
| 2026-05-06 15:50 | 38.75194 | -104.40899 | 10027 ft | 165 kts | 180° |
| 2026-05-06 15:50 | 38.74043 | -104.40950 | 9833 ft | 165 kts | 180° |
| 2026-05-06 15:51 | 38.72900 | -104.41002 | 9625 ft | 164 kts | 180° |
| 2026-05-06 15:51 | 38.71761 | -104.41052 | 9417 ft | 163 kts | 180° |
| 2026-05-06 15:51 | 38.70626 | -104.41100 | 9202 ft | 163 kts | 180° |
| 2026-05-06 15:51 | 38.69514 | -104.41149 | 9135 ft | 155 kts | 179° |
| 2026-05-06 15:52 | 38.68464 | -104.41197 | 9129 ft | 147 kts | 179° |
| 2026-05-06 15:52 | 38.67461 | -104.41248 | 9121 ft | 142 kts | 180° |
| 2026-05-06 15:52 | 38.66486 | -104.41296 | 9131 ft | 141 kts | 179° |
| 2026-05-06 15:52 | 38.65463 | -104.41342 | 9142 ft | 152 kts | 180° |
| 2026-05-06 15:53 | 38.64389 | -104.41387 | 9144 ft | 157 kts | 180° |
| 2026-05-06 15:53 | 38.63285 | -104.41433 | 9144 ft | 160 kts | 180° |
| 2026-05-06 15:53 | 38.62165 | -104.41480 | 9146 ft | 162 kts | 180° |
| 2026-05-06 15:53 | 38.61038 | -104.41527 | 9140 ft | 162 kts | 180° |
| 2026-05-06 15:54 | 38.60002 | -104.42055 | 9122 ft | 166 kts | 224° |
| 2026-05-06 15:54 | 38.59398 | -104.43297 | 9139 ft | 165 kts | 242° |
| 2026-05-06 15:54 | 38.58860 | -104.44592 | 9143 ft | 165 kts | 242° |
| 2026-05-06 15:54 | 38.58321 | -104.45887 | 9144 ft | 165 kts | 242° |
| 2026-05-06 15:55 | 38.57812 | -104.47205 | 9142 ft | 166 kts | 247° |
| 2026-05-06 15:55 | 38.57376 | -104.48569 | 9137 ft | 165 kts | 251° |
| 2026-05-06 15:55 | 38.57010 | -104.49962 | 9136 ft | 166 kts | 252° |
| 2026-05-06 15:55 | 38.56646 | -104.51364 | 9137 ft | 166 kts | 253° |
| 2026-05-06 15:56 | 38.56352 | -104.52786 | 9135 ft | 166 kts | 257° |
| 2026-05-06 15:56 | 38.56080 | -104.54219 | 9131 ft | 166 kts | 257° |
| 2026-05-06 15:56 | 38.55874 | -104.55664 | 9131 ft | 165 kts | 262° |
| 2026-05-06 15:56 | 38.55753 | -104.57120 | 9127 ft | 164 kts | 267° |
| 2026-05-06 15:57 | 38.55675 | -104.58547 | 9132 ft | 164 kts | 267° |
| 2026-05-06 15:57 | 38.55595 | -104.59999 | 9131 ft | 164 kts | 267° |
| 2026-05-06 15:57 | 38.55517 | -104.61455 | 9128 ft | 164 kts | 268° |
| 2026-05-06 15:57 | 38.55508 | -104.62915 | 9125 ft | 165 kts | 272° |
| 2026-05-06 15:58 | 38.55539 | -104.64375 | 9122 ft | 164 kts | 274° |
| 2026-05-06 15:58 | 38.55569 | -104.65836 | 9121 ft | 165 kts | 272° |
| 2026-05-06 15:58 | 38.55609 | -104.67297 | 9119 ft | 164 kts | 279° |
| 2026-05-06 15:58 | 38.56149 | -104.68511 | 9101 ft | 158 kts | 324° |
| 2026-05-06 15:59 | 38.57040 | -104.69297 | 8936 ft | 156 kts | 329° |
| 2026-05-06 15:59 | 38.57940 | -104.70084 | 8667 ft | 156 kts | 329° |
| 2026-05-06 15:59 | 38.58839 | -104.70867 | 8390 ft | 156 kts | 330° |
| 2026-05-06 15:59 | 38.59826 | -104.71396 | 8119 ft | 154 kts | 347° |
| 2026-05-06 16:00 | 38.60824 | -104.71544 | 8001 ft | 145 kts | 1° |
| 2026-05-06 16:00 | 38.61761 | -104.71589 | 7991 ft | 136 kts | 3° |
| 2026-05-06 16:00 | 38.62660 | -104.71609 | 8010 ft | 127 kts | 3° |
| 2026-05-06 16:00 | 38.63548 | -104.71615 | 8011 ft | 131 kts | 4° |
| 2026-05-06 16:01 | 38.64471 | -104.71614 | 8010 ft | 133 kts | 5° |
| 2026-05-06 16:01 | 38.65398 | -104.71611 | 8005 ft | 134 kts | 4° |
| 2026-05-06 16:01 | 38.66329 | -104.71609 | 8005 ft | 135 kts | 4° |
| 2026-05-06 16:01 | 38.67255 | -104.71608 | 7994 ft | 135 kts | 5° |
| 2026-05-06 16:02 | 38.68204 | -104.71606 | 8001 ft | 135 kts | 4° |
| 2026-05-06 16:02 | 38.69127 | -104.71605 | 7994 ft | 135 kts | 4° |
| 2026-05-06 16:02 | 38.70067 | -104.71602 | 7995 ft | 136 kts | 4° |
| 2026-05-06 16:02 | 38.71030 | -104.71600 | 7837 ft | 142 kts | 3° |
| 2026-05-06 16:03 | 38.72031 | -104.71603 | 7555 ft | 145 kts | 2° |
| 2026-05-06 16:03 | 38.73050 | -104.71602 | 7304 ft | 146 kts | 1° |
| 2026-05-06 16:03 | 38.74004 | -104.71601 | 7074 ft | 126 kts | 1° |
| 2026-05-06 16:03 | 38.74766 | -104.71602 | 6941 ft | 96 kts | 1° |
| 2026-05-06 16:04 | 38.75401 | -104.71601 | 6844 ft | 92 kts | 1° |
| 2026-05-06 16:04 | 38.76057 | -104.71600 | 6759 ft | 96 kts | 2° |
| 2026-05-06 16:04 | 38.76733 | -104.71597 | 6670 ft | 98 kts | 1° |
| 2026-05-06 16:04 | 38.77431 | -104.71597 | 6574 ft | 103 kts | 2° |
| 2026-05-06 16:05 | 38.78131 | -104.71597 | 6480 ft | 105 kts | 1° |
| 2026-05-06 16:05 | 38.78862 | -104.71594 | 6423 ft | 106 kts | 1° |
| 2026-05-06 16:05 | 38.79451 | -104.71590 | 6362 ft | 102 kts | 1° |
| 2026-05-06 16:05 | 38.80073 | -104.71594 | 6343 ft | 73 kts | 0° |
| 2026-05-06 16:06 | 38.80481 | -104.71592 | 6347 ft | 54 kts | 360° |
| 2026-05-06 16:06 | 38.80620 | -104.71688 | 6355 ft | 15 kts | 275° |
| 2026-05-06 16:06 | 38.80624 | -104.71805 | 6350 ft | 12 kts | 266° |
| 2026-05-06 16:06 | 38.80621 | -104.71902 | 6350 ft | 10 kts | 268° |
| 2026-05-06 16:07 | 38.80648 | -104.71959 | 6352 ft | 7 kts | 359° |
| 2026-05-06 16:07 | 38.80691 | -104.71958 | 6353 ft | 6 kts | 0° |
| 2026-05-06 16:07 | 38.80796 | -104.71960 | 6355 ft | 14 kts | 331° |
| 2026-05-06 16:07 | 38.80810 | -104.72033 | 6353 ft | 8 kts | 270° |
| 2026-05-06 16:08 | 38.80810 | -104.72041 | 6354 ft | 0 kts | 269° |